createdAt,value
2017-09-13T00:02:06.918Z,8.80
2017-09-13T00:04:34.529Z,8.80
2017-09-13T00:07:02.137Z,8.80
2017-09-13T00:09:29.742Z,8.80
2017-09-13T00:11:57.328Z,8.80
2017-09-13T00:14:24.938Z,8.80
2017-09-13T00:16:52.516Z,8.80
2017-09-13T00:19:20.170Z,8.80
2017-09-13T00:21:47.786Z,8.80
2017-09-13T00:24:15.391Z,8.80
2017-09-13T00:26:43.026Z,8.80
2017-09-13T00:29:10.641Z,8.70
2017-09-13T00:31:38.987Z,8.80
2017-09-13T00:34:06.606Z,8.70
2017-09-13T00:36:34.222Z,8.70
2017-09-13T00:39:01.800Z,8.70
2017-09-13T00:41:30.193Z,8.70
2017-09-13T00:43:57.804Z,8.70
2017-09-13T00:46:25.383Z,8.70
2017-09-13T00:48:53.038Z,8.70
2017-09-13T00:51:20.703Z,8.80
2017-09-13T00:53:48.321Z,8.80
2017-09-13T00:56:15.951Z,8.80
2017-09-13T00:58:43.583Z,8.80
2017-09-13T01:01:12.329Z,8.80
2017-09-13T01:03:39.948Z,8.70
2017-09-13T01:06:07.594Z,8.70
2017-09-13T01:08:35.224Z,8.70
2017-09-13T01:11:02.831Z,8.70
2017-09-13T01:13:31.179Z,8.70
2017-09-13T01:15:58.792Z,8.60
2017-09-13T01:18:26.374Z,8.60
2017-09-13T01:20:53.995Z,8.60
2017-09-13T01:23:21.578Z,8.60
2017-09-13T01:25:49.190Z,8.60
2017-09-13T01:28:16.755Z,8.60
2017-09-13T01:30:44.366Z,8.60
2017-09-13T01:33:11.899Z,8.60
2017-09-13T01:35:39.507Z,8.60
2017-09-13T01:38:07.110Z,8.60
2017-09-13T01:40:34.729Z,8.60
2017-09-13T01:43:02.350Z,8.60
2017-09-13T01:45:29.962Z,8.60
2017-09-13T01:48:00.525Z,8.60
2017-09-13T01:50:28.143Z,8.60
2017-09-13T01:52:56.521Z,8.60
2017-09-13T01:55:24.135Z,8.50
2017-09-13T01:57:51.704Z,8.50
2017-09-13T02:00:19.314Z,8.60
2017-09-13T02:02:46.880Z,8.60
2017-09-13T02:05:14.456Z,8.60
2017-09-13T02:07:42.050Z,8.60
2017-09-13T02:10:10.440Z,8.60
2017-09-13T02:12:38.054Z,8.60
2017-09-13T02:15:05.632Z,8.60
2017-09-13T02:17:34.038Z,8.70
2017-09-13T02:20:01.657Z,8.60
2017-09-13T02:22:29.279Z,8.70
2017-09-13T02:24:56.879Z,8.70
2017-09-13T02:27:24.498Z,8.70
2017-09-13T02:29:52.110Z,8.80
2017-09-13T02:32:19.715Z,8.80
2017-09-13T02:34:47.327Z,8.80
2017-09-13T02:37:14.942Z,8.80
2017-09-13T02:39:42.550Z,8.90
2017-09-13T02:42:10.148Z,8.90
2017-09-13T02:44:37.718Z,9.00
2017-09-13T02:47:05.329Z,9.20
2017-09-13T02:49:32.941Z,9.30
2017-09-13T02:52:00.550Z,9.40
2017-09-13T02:54:28.159Z,9.50
2017-09-13T02:56:55.775Z,9.60
2017-09-13T02:59:23.356Z,9.60
2017-09-13T03:01:51.758Z,9.50
2017-09-13T03:04:19.337Z,9.50
2017-09-13T03:06:46.918Z,9.50
2017-09-13T03:09:14.547Z,9.40
2017-09-13T03:11:42.123Z,9.40
2017-09-13T03:14:09.745Z,9.30
2017-09-13T03:16:38.132Z,9.20
2017-09-13T03:19:05.742Z,9.20
2017-09-13T03:21:33.379Z,9.20
2017-09-13T03:24:00.944Z,9.20
2017-09-13T03:26:28.608Z,9.30
2017-09-13T03:28:56.240Z,9.30
2017-09-13T03:31:23.856Z,9.40
2017-09-13T03:33:51.487Z,9.50
2017-09-13T03:36:19.110Z,9.60
2017-09-13T03:38:46.694Z,9.60
2017-09-13T03:41:14.307Z,9.60
2017-09-13T03:43:41.837Z,9.60
2017-09-13T03:46:09.370Z,9.50
2017-09-13T03:48:36.987Z,9.50
2017-09-13T03:51:04.628Z,9.40
2017-09-13T03:53:32.267Z,9.40
2017-09-13T03:55:59.923Z,9.40
2017-09-13T03:58:27.462Z,9.40
2017-09-13T04:00:55.066Z,9.30
2017-09-13T04:03:22.896Z,9.30
2017-09-13T04:05:50.559Z,9.30
2017-09-13T04:08:18.175Z,9.30
2017-09-13T04:10:45.764Z,9.30
2017-09-13T04:13:13.364Z,9.30
2017-09-13T04:15:40.971Z,9.40
2017-09-13T04:18:08.687Z,9.40
2017-09-13T04:20:36.294Z,9.40
2017-09-13T04:23:03.859Z,9.50
2017-09-13T04:25:31.486Z,9.50
2017-09-13T04:27:59.103Z,9.50
2017-09-13T04:30:26.715Z,9.60
2017-09-13T04:32:54.309Z,9.60
2017-09-13T04:35:21.924Z,9.60
2017-09-13T04:37:49.536Z,9.60
2017-09-13T04:40:17.154Z,9.70
2017-09-13T04:42:44.739Z,9.70
2017-09-13T04:45:12.354Z,9.70
2017-09-13T04:47:39.990Z,9.80
2017-09-13T04:50:08.776Z,9.80
2017-09-13T04:52:36.658Z,9.80
2017-09-13T04:55:04.277Z,9.90
2017-09-13T04:57:31.898Z,9.90
2017-09-13T04:59:59.521Z,10.00
2017-09-13T05:02:27.134Z,10.00
2017-09-13T05:04:54.752Z,10.30
2017-09-13T05:07:22.381Z,10.40
2017-09-13T05:09:49.995Z,10.40
2017-09-13T05:12:17.620Z,10.50
2017-09-13T05:14:46.000Z,12.60
2017-09-13T05:17:14.422Z,13.70
2017-09-13T05:19:42.074Z,13.60
2017-09-13T05:22:09.695Z,14.50
2017-09-13T05:24:37.307Z,15.00
2017-09-13T05:27:04.919Z,15.70
2017-09-13T05:29:32.528Z,15.90
2017-09-13T05:32:00.137Z,16.00
2017-09-13T05:34:27.765Z,16.60
2017-09-13T05:36:55.385Z,17.40
2017-09-13T05:39:23.015Z,17.40
2017-09-13T05:41:50.625Z,17.50
2017-09-13T05:44:18.251Z,17.70
2017-09-13T05:46:45.914Z,18.40
2017-09-13T05:49:14.354Z,18.40
2017-09-13T05:51:41.981Z,18.40
2017-09-13T05:54:09.559Z,18.40
2017-09-13T05:56:37.142Z,19.00
2017-09-13T05:59:04.722Z,18.50
2017-09-13T06:01:32.334Z,17.00
2017-09-13T06:04:00.049Z,15.70
2017-09-13T06:06:27.689Z,14.60
2017-09-13T06:08:55.315Z,14.10
2017-09-13T06:11:22.955Z,13.60
2017-09-13T06:13:51.358Z,13.40
2017-09-13T06:16:18.980Z,13.30
2017-09-13T06:18:46.605Z,14.60
2017-09-13T06:21:14.255Z,16.20
2017-09-13T06:23:41.869Z,16.50
2017-09-13T06:26:09.436Z,15.80
2017-09-13T06:28:37.153Z,15.00
2017-09-13T06:31:04.750Z,14.30
2017-09-13T06:33:32.358Z,13.70
2017-09-13T06:35:59.978Z,13.30
2017-09-13T06:38:28.368Z,12.80
2017-09-13T06:40:56.663Z,12.90
2017-09-13T06:43:24.322Z,12.90
2017-09-13T06:45:51.982Z,13.30
2017-09-13T06:48:19.594Z,14.70
2017-09-13T06:50:47.286Z,16.90
2017-09-13T06:53:14.868Z,17.40
2017-09-13T06:55:42.478Z,18.40
2017-09-13T06:58:10.052Z,19.60
2017-09-13T07:00:37.697Z,20.10
2017-09-13T07:03:05.389Z,20.50
2017-09-13T07:05:33.037Z,20.70
2017-09-13T07:08:00.707Z,21.60
2017-09-13T07:10:28.301Z,21.90
2017-09-13T07:12:55.880Z,20.00
2017-09-13T07:15:23.534Z,18.60
2017-09-13T07:17:51.146Z,17.60
2017-09-13T07:20:18.762Z,16.80
2017-09-13T07:22:46.374Z,16.20
2017-09-13T07:25:14.034Z,15.60
2017-09-13T07:27:41.604Z,15.50
2017-09-13T07:30:09.218Z,15.90
2017-09-13T07:32:36.821Z,15.70
2017-09-13T07:35:04.426Z,15.10
2017-09-13T07:37:32.090Z,14.80
2017-09-13T07:39:59.670Z,14.80
2017-09-13T07:42:27.262Z,14.90
2017-09-13T07:44:55.622Z,15.20
2017-09-13T07:47:23.247Z,15.10
2017-09-13T07:49:50.873Z,15.10
2017-09-13T07:52:19.207Z,14.40
2017-09-13T07:54:46.902Z,14.40
2017-09-13T07:57:14.521Z,14.30
2017-09-13T07:59:42.132Z,14.30
2017-09-13T08:02:10.483Z,13.90
2017-09-13T08:04:38.101Z,13.90
2017-09-13T08:07:05.687Z,13.60
2017-09-13T08:09:33.311Z,13.30
2017-09-13T08:12:00.881Z,13.30
2017-09-13T08:14:28.465Z,13.10
2017-09-13T08:16:56.076Z,13.20
2017-09-13T08:19:23.695Z,12.90
2017-09-13T08:21:51.274Z,12.70
2017-09-13T08:24:18.917Z,12.40
2017-09-13T08:26:46.545Z,12.20
2017-09-13T08:29:14.149Z,12.10
2017-09-13T08:31:41.787Z,12.00
2017-09-13T08:34:09.434Z,12.00
2017-09-13T08:36:37.047Z,11.90
2017-09-13T08:39:04.711Z,11.90
2017-09-13T08:41:32.334Z,11.90
2017-09-13T08:43:59.906Z,11.80
2017-09-13T08:46:27.526Z,11.70
2017-09-13T08:48:55.911Z,11.70
2017-09-13T08:51:23.484Z,11.70
2017-09-13T08:53:51.104Z,11.90
2017-09-13T08:56:18.722Z,12.20
2017-09-13T08:58:46.386Z,12.60
2017-09-13T09:01:14.030Z,13.00
2017-09-13T09:03:41.661Z,13.60
2017-09-13T09:06:09.277Z,14.00
2017-09-13T09:08:36.890Z,13.90
2017-09-13T09:11:04.503Z,13.90
2017-09-13T09:13:32.084Z,13.90
2017-09-13T09:15:59.734Z,14.20
2017-09-13T09:18:27.346Z,14.40
2017-09-13T09:20:54.950Z,14.60
2017-09-13T09:23:22.573Z,15.70
2017-09-13T09:25:50.179Z,16.10
2017-09-13T09:28:17.761Z,16.00
2017-09-13T09:30:45.330Z,15.40
2017-09-13T09:33:12.955Z,14.90
2017-09-13T09:35:40.578Z,14.70
2017-09-13T09:38:08.197Z,14.50
2017-09-13T09:40:35.816Z,14.40
2017-09-13T09:43:03.448Z,14.40
2017-09-13T09:45:31.076Z,14.30
2017-09-13T09:47:58.687Z,14.10
2017-09-13T09:50:26.263Z,13.90
2017-09-13T09:52:53.843Z,13.70
2017-09-13T09:55:21.502Z,13.50
2017-09-13T09:57:49.078Z,13.40
2017-09-13T10:00:16.663Z,13.40
2017-09-13T10:02:44.236Z,13.50
2017-09-13T10:05:11.810Z,13.70
2017-09-13T10:07:39.408Z,14.30
2017-09-13T10:10:07.118Z,14.70
2017-09-13T10:12:34.736Z,14.80
2017-09-13T10:15:02.396Z,14.80
2017-09-13T10:17:30.020Z,14.80
2017-09-13T10:19:57.635Z,14.50
2017-09-13T10:22:25.208Z,14.40
2017-09-13T10:24:52.783Z,14.30
2017-09-13T10:27:20.366Z,14.10
2017-09-13T10:29:47.970Z,14.10
2017-09-13T10:32:15.543Z,14.00
2017-09-13T10:34:43.118Z,14.10
2017-09-13T10:37:11.662Z,14.20
2017-09-13T10:39:39.278Z,14.40
2017-09-13T10:42:09.262Z,14.60
2017-09-13T10:44:36.875Z,14.90
2017-09-13T10:47:04.499Z,15.50
2017-09-13T10:49:32.116Z,16.90
2017-09-13T10:51:59.721Z,17.60
2017-09-13T10:54:27.344Z,18.60
2017-09-13T10:56:54.959Z,19.40
2017-09-13T10:59:22.603Z,20.60
2017-09-13T11:01:50.226Z,20.40
2017-09-13T11:04:17.851Z,20.20
2017-09-13T11:06:45.495Z,20.30
2017-09-13T11:09:13.107Z,20.20
2017-09-13T11:11:40.718Z,20.40
2017-09-13T11:14:08.342Z,20.60
2017-09-13T11:16:36.037Z,20.80
2017-09-13T11:19:04.406Z,20.20
2017-09-13T11:21:32.048Z,20.10
2017-09-13T11:24:02.080Z,20.30
2017-09-13T11:26:30.884Z,20.50
2017-09-13T11:28:58.498Z,20.40
2017-09-13T11:31:26.119Z,20.30
2017-09-13T11:33:53.742Z,20.30
2017-09-13T11:36:21.377Z,19.10
2017-09-13T11:38:49.003Z,18.60
2017-09-13T11:41:16.640Z,17.90
2017-09-13T11:43:45.038Z,17.20
2017-09-13T11:46:13.428Z,17.20
2017-09-13T11:48:41.166Z,17.20
2017-09-13T11:51:13.437Z,17.50
2017-09-13T11:53:42.037Z,17.70
2017-09-13T11:56:09.691Z,17.70
2017-09-13T11:58:38.245Z,17.80
2017-09-13T12:01:05.863Z,17.80
2017-09-13T12:03:33.522Z,17.50
2017-09-13T12:06:01.070Z,17.30
2017-09-13T12:08:28.683Z,17.30
2017-09-13T12:10:56.306Z,17.30
2017-09-13T12:13:23.967Z,17.40
2017-09-13T12:15:51.547Z,17.50
2017-09-13T12:18:19.158Z,17.50
2017-09-13T12:20:46.807Z,17.60
2017-09-13T12:23:14.755Z,17.70
2017-09-13T12:25:42.587Z,17.40
2017-09-13T12:28:10.178Z,17.10
2017-09-13T12:30:37.774Z,17.20
2017-09-13T12:33:06.158Z,17.00
2017-09-13T12:35:34.548Z,17.00
2017-09-13T12:38:02.943Z,17.00
2017-09-13T12:40:30.567Z,16.90
2017-09-13T12:42:58.167Z,17.00
2017-09-13T12:45:25.885Z,17.00
2017-09-13T12:47:53.519Z,16.90
2017-09-13T12:50:21.264Z,16.80
2017-09-13T12:52:48.878Z,17.10
2017-09-13T12:55:16.484Z,17.40
2017-09-13T12:57:44.079Z,17.50
2017-09-13T13:00:11.707Z,17.50
2017-09-13T13:02:39.283Z,17.50
2017-09-13T13:05:06.909Z,17.50
2017-09-13T13:07:34.524Z,17.60
2017-09-13T13:10:02.110Z,17.40
2017-09-13T13:12:29.740Z,17.00
2017-09-13T13:14:57.390Z,16.80
2017-09-13T13:17:25.022Z,16.80
2017-09-13T13:19:52.799Z,16.80
2017-09-13T13:22:22.823Z,16.70
2017-09-13T13:24:50.799Z,16.80
2017-09-13T13:27:18.410Z,16.70
2017-09-13T13:29:46.822Z,16.70
2017-09-13T13:32:14.469Z,16.70
2017-09-13T13:34:42.115Z,16.50
2017-09-13T13:37:10.538Z,16.30
2017-09-13T13:39:38.241Z,16.30
2017-09-13T13:42:05.876Z,16.10
2017-09-13T13:44:33.492Z,16.00
2017-09-13T13:47:01.866Z,16.00
2017-09-13T13:49:29.502Z,16.00
2017-09-13T13:51:57.121Z,15.90
2017-09-13T13:54:24.944Z,15.80
2017-09-13T13:56:52.567Z,15.60
2017-09-13T13:59:20.209Z,15.50
2017-09-13T14:01:47.831Z,15.40
2017-09-13T14:04:16.214Z,15.30
2017-09-13T14:06:44.600Z,15.20
2017-09-13T14:09:12.359Z,15.20
2017-09-13T14:11:40.757Z,15.20
2017-09-13T14:14:08.372Z,15.20
2017-09-13T14:16:36.051Z,15.20
2017-09-13T14:19:03.703Z,15.00
2017-09-13T14:21:31.309Z,14.80
2017-09-13T14:23:58.940Z,14.60
2017-09-13T14:26:27.356Z,14.40
2017-09-13T14:28:54.982Z,14.30
2017-09-13T14:31:23.331Z,14.10
2017-09-13T14:33:50.971Z,14.10
2017-09-13T14:36:18.586Z,13.90
2017-09-13T14:38:46.930Z,13.60
2017-09-13T14:41:14.574Z,13.60
2017-09-13T14:43:42.211Z,13.70
2017-09-13T14:46:09.830Z,13.80
2017-09-13T14:48:37.615Z,13.80
2017-09-13T14:51:05.325Z,13.90
2017-09-13T14:53:32.979Z,14.00
2017-09-13T14:56:00.605Z,14.00
2017-09-13T14:58:29.009Z,14.10
2017-09-13T15:00:56.618Z,14.10
2017-09-13T15:03:24.240Z,14.00
2017-09-13T15:05:51.852Z,13.90
2017-09-13T15:08:19.671Z,13.90
2017-09-13T15:10:47.291Z,13.90
2017-09-13T15:13:15.768Z,14.10
2017-09-13T15:15:44.160Z,14.30
2017-09-13T15:18:11.826Z,14.30
2017-09-13T15:20:39.771Z,14.50
2017-09-13T15:23:07.382Z,14.50
2017-09-13T15:25:34.997Z,14.60
2017-09-13T15:28:03.356Z,14.60
2017-09-13T15:30:30.938Z,14.60
2017-09-13T15:32:59.286Z,14.70
2017-09-13T15:35:26.872Z,14.60
2017-09-13T15:37:54.698Z,14.70
2017-09-13T15:40:22.329Z,14.60
2017-09-13T15:42:49.941Z,14.40
2017-09-13T15:45:17.560Z,14.30
2017-09-13T15:47:45.182Z,14.00
2017-09-13T15:50:12.817Z,13.90
2017-09-13T15:52:40.541Z,13.80
2017-09-13T15:55:08.435Z,13.90
2017-09-13T15:57:36.009Z,13.80
2017-09-13T16:00:03.683Z,13.90
2017-09-13T16:02:31.351Z,13.80
2017-09-13T16:04:58.978Z,13.80
2017-09-13T16:07:26.639Z,13.80
2017-09-13T16:09:54.267Z,13.80
2017-09-13T16:12:21.974Z,13.80
2017-09-13T16:14:49.570Z,13.80
2017-09-13T16:17:17.931Z,13.80
2017-09-13T16:19:45.535Z,13.80
2017-09-13T16:22:13.239Z,13.80
2017-09-13T16:24:40.902Z,13.80
2017-09-13T16:27:08.522Z,13.80
2017-09-13T16:29:36.103Z,13.80
2017-09-13T16:32:03.952Z,13.80
2017-09-13T16:34:31.595Z,13.80
2017-09-13T16:37:00.315Z,13.80
2017-09-13T16:39:28.772Z,13.90
2017-09-13T16:41:56.373Z,13.80
2017-09-13T16:44:24.002Z,13.90
2017-09-13T16:46:51.579Z,14.00
2017-09-13T16:49:19.263Z,14.10
2017-09-13T16:51:46.851Z,14.20
2017-09-13T16:54:14.483Z,14.30
2017-09-13T16:56:42.097Z,14.30
2017-09-13T16:59:09.718Z,14.40
2017-09-13T17:01:37.332Z,14.40
2017-09-13T17:04:04.943Z,14.30
2017-09-13T17:06:32.639Z,14.30
2017-09-13T17:09:01.019Z,14.30
2017-09-13T17:11:29.372Z,14.20
2017-09-13T17:13:58.085Z,14.10
2017-09-13T17:16:25.706Z,14.10
2017-09-13T17:18:53.238Z,14.00
2017-09-13T17:21:20.848Z,13.90
2017-09-13T17:23:48.458Z,13.80
2017-09-13T17:26:16.071Z,13.80
2017-09-13T17:28:43.692Z,13.80
2017-09-13T17:31:12.073Z,13.80
2017-09-13T17:33:39.692Z,13.80
2017-09-13T17:36:08.078Z,13.80
2017-09-13T17:38:35.699Z,13.80
2017-09-13T17:41:03.322Z,13.90
2017-09-13T17:43:30.942Z,13.80
2017-09-13T17:45:59.759Z,13.70
2017-09-13T17:48:27.473Z,13.80
2017-09-13T17:50:55.081Z,13.70
2017-09-13T17:53:22.947Z,13.70
2017-09-13T17:55:50.559Z,13.70
2017-09-13T17:58:18.136Z,13.60
2017-09-13T18:00:45.673Z,13.60
2017-09-13T18:03:13.328Z,13.50
2017-09-13T18:05:42.982Z,13.40
2017-09-13T18:08:11.325Z,13.30
2017-09-13T18:10:38.918Z,13.30
2017-09-13T18:13:06.574Z,13.40
2017-09-13T18:15:34.959Z,13.40
2017-09-13T18:18:02.882Z,13.30
2017-09-13T18:20:30.529Z,13.30
2017-09-13T18:22:58.183Z,13.30
2017-09-13T18:25:25.766Z,13.40
2017-09-13T18:27:53.385Z,13.40
2017-09-13T18:30:21.029Z,13.50
2017-09-13T18:32:49.444Z,13.60
2017-09-13T18:35:17.075Z,13.60
2017-09-13T18:37:45.431Z,13.60
2017-09-13T18:40:13.064Z,13.60
2017-09-13T18:42:40.712Z,13.60
2017-09-13T18:45:08.332Z,13.60
2017-09-13T18:47:35.912Z,13.60
2017-09-13T18:50:04.357Z,13.60
2017-09-13T18:52:31.971Z,13.60
2017-09-13T18:54:59.616Z,13.60
2017-09-13T18:57:27.205Z,13.50
2017-09-13T18:59:55.050Z,13.50
2017-09-13T19:02:22.972Z,13.40
2017-09-13T19:04:50.599Z,13.40
2017-09-13T19:07:18.219Z,13.40
2017-09-13T19:09:46.600Z,13.40
2017-09-13T19:12:14.258Z,13.40
2017-09-13T19:14:42.671Z,13.50
2017-09-13T19:17:12.418Z,13.50
2017-09-13T19:19:40.088Z,13.60
2017-09-13T19:22:07.664Z,13.60
2017-09-13T19:24:35.288Z,13.60
2017-09-13T19:27:02.894Z,13.60
2017-09-13T19:29:31.342Z,13.60
2017-09-13T19:31:58.970Z,13.60
2017-09-13T19:34:27.242Z,13.60
2017-09-13T19:36:54.832Z,13.50
2017-09-13T19:39:22.454Z,13.60
2017-09-13T19:41:50.079Z,13.50
2017-09-13T19:44:17.699Z,13.60
2017-09-13T19:46:45.288Z,13.60
2017-09-13T19:49:12.934Z,13.50
2017-09-13T19:51:40.558Z,13.60
2017-09-13T19:54:08.201Z,13.70
2017-09-13T19:56:35.906Z,13.70
2017-09-13T19:59:03.558Z,13.70
2017-09-13T20:01:31.173Z,13.90
2017-09-13T20:03:58.795Z,14.00
2017-09-13T20:06:26.462Z,14.00
2017-09-13T20:08:54.085Z,14.10
2017-09-13T20:11:21.707Z,14.20
2017-09-13T20:13:49.306Z,14.20
2017-09-13T20:16:16.930Z,14.20
2017-09-13T20:18:44.660Z,14.20
2017-09-13T20:21:12.284Z,14.40
2017-09-13T20:23:39.910Z,14.50
2017-09-13T20:26:07.538Z,14.60
2017-09-13T20:28:35.150Z,14.60
2017-09-13T20:31:02.737Z,14.70
2017-09-13T20:33:30.315Z,14.70
2017-09-13T20:35:58.150Z,14.60
2017-09-13T20:38:26.549Z,14.60
2017-09-13T20:40:54.396Z,14.60
2017-09-13T20:43:22.105Z,14.60
2017-09-13T20:45:49.687Z,14.60
2017-09-13T20:48:17.277Z,14.50
2017-09-13T20:50:45.621Z,14.40
2017-09-13T20:53:13.251Z,14.40
2017-09-13T20:55:42.167Z,14.40
2017-09-13T20:58:10.087Z,14.50
2017-09-13T21:00:38.131Z,14.40
2017-09-13T21:03:05.775Z,14.40
2017-09-13T21:05:33.457Z,14.30
2017-09-13T21:08:01.038Z,14.30
2017-09-13T21:10:28.647Z,14.30
2017-09-13T21:12:56.261Z,14.20
2017-09-13T21:15:23.885Z,14.10
2017-09-13T21:17:51.532Z,14.00
2017-09-13T21:20:19.148Z,14.00
2017-09-13T21:22:47.489Z,13.90
2017-09-13T21:25:15.106Z,13.90
2017-09-13T21:27:42.722Z,13.90
2017-09-13T21:30:10.333Z,13.80
2017-09-13T21:32:37.975Z,13.80
2017-09-13T21:35:06.327Z,13.80
2017-09-13T21:37:33.904Z,13.80
2017-09-13T21:40:01.562Z,13.80
2017-09-13T21:42:29.170Z,13.80
2017-09-13T21:44:56.784Z,13.80
2017-09-13T21:47:24.439Z,13.80
2017-09-13T21:49:52.054Z,13.70
2017-09-13T21:52:19.662Z,13.70
2017-09-13T21:54:47.230Z,13.70
2017-09-13T21:57:14.825Z,13.60
2017-09-13T21:59:42.395Z,13.60
2017-09-13T22:02:10.062Z,13.60
2017-09-13T22:04:37.756Z,13.50
2017-09-13T22:07:05.374Z,13.40
2017-09-13T22:09:33.730Z,13.40
2017-09-13T22:12:01.359Z,13.40
2017-09-13T22:14:28.948Z,13.30
2017-09-13T22:16:56.563Z,13.40
2017-09-13T22:19:24.178Z,13.40
2017-09-13T22:21:51.778Z,13.40
2017-09-13T22:24:19.395Z,13.40
2017-09-13T22:26:47.017Z,13.40
2017-09-13T22:29:14.666Z,13.30
2017-09-13T22:31:42.284Z,13.30
2017-09-13T22:34:09.906Z,13.30
2017-09-13T22:36:37.562Z,13.30
2017-09-13T22:39:05.182Z,13.30
2017-09-13T22:41:32.756Z,13.30
2017-09-13T22:44:00.328Z,13.30
2017-09-13T22:46:27.942Z,13.20
2017-09-13T22:48:55.562Z,13.20
2017-09-13T22:51:23.181Z,13.20
2017-09-13T22:53:50.794Z,13.20
2017-09-13T22:56:18.403Z,13.20
2017-09-13T22:58:46.064Z,13.20
2017-09-13T23:01:13.672Z,13.10
2017-09-13T23:03:41.241Z,13.10
2017-09-13T23:06:08.778Z,13.10
2017-09-13T23:08:36.353Z,13.10
2017-09-13T23:11:03.921Z,13.00
2017-09-13T23:13:31.535Z,12.90
2017-09-13T23:15:59.148Z,12.80
2017-09-13T23:18:26.767Z,12.80
2017-09-13T23:20:54.342Z,12.70
2017-09-13T23:23:22.114Z,12.60
2017-09-13T23:25:49.727Z,12.60
2017-09-13T23:28:17.334Z,12.50
2017-09-13T23:30:44.949Z,12.50
2017-09-13T23:33:12.582Z,12.40
2017-09-13T23:35:40.242Z,12.40
2017-09-13T23:38:07.862Z,12.40
2017-09-13T23:40:35.494Z,12.40
2017-09-13T23:43:03.908Z,12.40
2017-09-13T23:45:31.536Z,12.30
2017-09-13T23:47:59.154Z,12.30
2017-09-13T23:50:26.778Z,12.30
2017-09-13T23:52:54.399Z,12.30
2017-09-13T23:55:22.026Z,12.30
2017-09-13T23:57:49.648Z,12.30
